createdAt,value
2018-11-03T00:00:12.668Z,1027.53
2018-11-03T00:01:12.636Z,1027.56
2018-11-03T00:02:12.603Z,1027.52
2018-11-03T00:03:12.570Z,1027.48
2018-11-03T00:04:12.537Z,1027.44
2018-11-03T00:05:12.507Z,1027.47
2018-11-03T00:06:12.474Z,1027.39
2018-11-03T00:07:12.440Z,1027.41
2018-11-03T00:08:12.409Z,1027.38
2018-11-03T00:09:12.377Z,1027.38
2018-11-03T00:10:12.345Z,1027.39
2018-11-03T00:11:12.313Z,1027.36
2018-11-03T00:12:12.281Z,1027.38
2018-11-03T00:13:12.248Z,1027.35
2018-11-03T00:14:12.216Z,1027.38
2018-11-03T00:15:12.184Z,1027.41
2018-11-03T00:16:12.152Z,1027.44
2018-11-03T00:17:12.119Z,1027.41
2018-11-03T00:18:12.089Z,1027.43
2018-11-03T00:19:12.057Z,1027.43
2018-11-03T00:20:12.025Z,1027.40
2018-11-03T00:21:11.990Z,1027.40
2018-11-03T00:22:11.958Z,1027.42
2018-11-03T00:23:11.925Z,1027.45
2018-11-03T00:24:11.892Z,1027.48
2018-11-03T00:25:11.861Z,1027.49
2018-11-03T00:26:11.828Z,1027.47
2018-11-03T00:27:11.799Z,1027.45
2018-11-03T00:28:11.764Z,1027.49
2018-11-03T00:29:11.733Z,1027.52
2018-11-03T00:30:11.709Z,1027.54
2018-11-03T00:31:11.666Z,1027.52
2018-11-03T00:32:11.634Z,1027.53
2018-11-03T00:33:11.603Z,1027.48
2018-11-03T00:34:11.570Z,1027.51
2018-11-03T00:35:11.543Z,1027.57
2018-11-03T00:36:11.507Z,1027.52
2018-11-03T00:37:11.473Z,1027.53
2018-11-03T00:38:11.442Z,1027.54
2018-11-03T00:39:11.408Z,1027.54
2018-11-03T00:40:11.376Z,1027.52
2018-11-03T00:41:11.348Z,1027.54
2018-11-03T00:42:11.312Z,1027.55
2018-11-03T00:43:11.279Z,1027.48
2018-11-03T00:44:11.250Z,1027.52
2018-11-03T00:45:11.215Z,1027.52
2018-11-03T00:46:11.184Z,1027.54
2018-11-03T00:47:11.150Z,1027.57
2018-11-03T00:48:11.118Z,1027.56
2018-11-03T00:49:11.086Z,1027.59
2018-11-03T00:50:11.053Z,1027.56
2018-11-03T00:51:11.025Z,1027.61
2018-11-03T00:52:10.989Z,1027.57
2018-11-03T00:53:10.958Z,1027.54
2018-11-03T00:54:10.924Z,1027.55
2018-11-03T00:55:10.892Z,1027.54
2018-11-03T00:56:10.859Z,1027.53
2018-11-03T00:57:10.827Z,1027.54
2018-11-03T00:58:10.794Z,1027.58
2018-11-03T00:59:10.763Z,1027.58
2018-11-03T01:00:10.730Z,1027.56
2018-11-03T01:01:10.696Z,1027.57
2018-11-03T01:02:10.670Z,1027.56
2018-11-03T01:03:10.631Z,1027.54
2018-11-03T01:04:10.600Z,1027.52
2018-11-03T01:05:10.569Z,1027.54
2018-11-03T01:06:10.536Z,1027.52
2018-11-03T01:07:10.505Z,1027.51
2018-11-03T01:08:10.471Z,1027.54
2018-11-03T01:09:10.441Z,1027.53
2018-11-03T01:10:10.405Z,1027.54
2018-11-03T01:11:10.372Z,1027.55
2018-11-03T01:12:10.341Z,1027.57
2018-11-03T01:13:10.308Z,1027.58
2018-11-03T01:14:10.275Z,1027.58
2018-11-03T01:15:10.241Z,1027.58
2018-11-03T01:16:10.210Z,1027.58
2018-11-03T01:17:10.178Z,1027.56
2018-11-03T01:18:10.146Z,1027.61
2018-11-03T01:19:10.110Z,1027.55
2018-11-03T01:20:10.079Z,1027.59
2018-11-03T01:21:10.048Z,1027.61
2018-11-03T01:22:10.014Z,1027.65
2018-11-03T01:23:09.981Z,1027.60
2018-11-03T01:24:09.952Z,1027.56
2018-11-03T01:25:09.918Z,1027.57
2018-11-03T01:26:09.882Z,1027.59
2018-11-03T01:27:09.852Z,1027.60
2018-11-03T01:28:09.817Z,1027.56
2018-11-03T01:29:09.785Z,1027.58
2018-11-03T01:30:09.754Z,1027.57
2018-11-03T01:31:09.721Z,1027.59
2018-11-03T01:32:09.687Z,1027.62
2018-11-03T01:33:09.658Z,1027.59
2018-11-03T01:34:09.622Z,1027.60
2018-11-03T01:35:09.593Z,1027.61
2018-11-03T01:36:09.557Z,1027.61
2018-11-03T01:37:09.523Z,1027.63
2018-11-03T01:38:09.493Z,1027.61
2018-11-03T01:39:09.458Z,1027.63
2018-11-03T01:40:09.425Z,1027.63
2018-11-03T01:41:09.431Z,1027.65
2018-11-03T01:42:09.361Z,1027.66
2018-11-03T01:43:09.326Z,1027.65
2018-11-03T01:44:09.295Z,1027.70
2018-11-03T01:45:09.261Z,1027.64
2018-11-03T01:46:09.228Z,1027.61
2018-11-03T01:47:09.196Z,1027.65
2018-11-03T01:48:09.162Z,1027.63
2018-11-03T01:49:09.131Z,1027.59
2018-11-03T01:50:09.098Z,1027.62
2018-11-03T01:51:09.064Z,1027.53
2018-11-03T01:52:09.031Z,1027.59
2018-11-03T01:53:08.999Z,1027.58
2018-11-03T01:54:08.966Z,1027.59
2018-11-03T01:55:08.934Z,1027.59
2018-11-03T01:56:08.900Z,1027.57
2018-11-03T01:57:08.867Z,1027.59
2018-11-03T01:58:08.835Z,1027.62
2018-11-03T01:59:08.803Z,1027.62
2018-11-03T02:00:08.774Z,1027.54
2018-11-03T02:01:08.744Z,1027.55
2018-11-03T02:02:08.707Z,1027.60
2018-11-03T02:03:08.670Z,1027.58
2018-11-03T02:04:08.639Z,1027.57
2018-11-03T02:05:08.604Z,1027.56
2018-11-03T02:06:08.574Z,1027.61
2018-11-03T02:07:08.538Z,1027.62
2018-11-03T02:08:08.505Z,1027.61
2018-11-03T02:09:08.472Z,1027.61
2018-11-03T02:10:08.442Z,1027.63
2018-11-03T02:11:08.408Z,1027.63
2018-11-03T02:12:08.374Z,1027.65
2018-11-03T02:13:08.342Z,1027.70
2018-11-03T02:14:08.308Z,1027.75
2018-11-03T02:15:08.275Z,1027.70
2018-11-03T02:16:08.243Z,1027.74
2018-11-03T02:17:08.211Z,1027.76
2018-11-03T02:18:08.176Z,1027.81
2018-11-03T02:19:08.143Z,1027.80
2018-11-03T02:20:08.110Z,1027.81
2018-11-03T02:21:08.077Z,1027.81
2018-11-03T02:22:08.046Z,1027.84
2018-11-03T02:23:08.013Z,1027.89
2018-11-03T02:24:08.008Z,1027.88
2018-11-03T02:25:07.949Z,1027.91
2018-11-03T02:26:07.917Z,1027.89
2018-11-03T02:27:07.879Z,1027.87
2018-11-03T02:28:07.846Z,1027.84
2018-11-03T02:29:07.814Z,1027.87
2018-11-03T02:30:07.781Z,1027.86
2018-11-03T02:31:07.748Z,1027.87
2018-11-03T02:32:07.715Z,1027.86
2018-11-03T02:33:07.680Z,1027.87
2018-11-03T02:34:07.652Z,1027.89
2018-11-03T02:35:07.614Z,1027.89
2018-11-03T02:36:07.588Z,1027.89
2018-11-03T02:37:07.566Z,1027.90
2018-11-03T02:38:07.518Z,1027.91
2018-11-03T02:39:07.482Z,1027.87
2018-11-03T02:40:07.463Z,1027.88
2018-11-03T02:41:07.418Z,1027.93
2018-11-03T02:42:07.386Z,1027.92
2018-11-03T02:43:07.352Z,1027.92
2018-11-03T02:44:07.321Z,1027.90
2018-11-03T02:45:07.288Z,1027.89
2018-11-03T02:46:07.271Z,1027.87
2018-11-03T02:47:07.225Z,1027.88
2018-11-03T02:48:07.189Z,1027.90
2018-11-03T02:49:07.155Z,1027.86
2018-11-03T02:50:07.124Z,1027.88
2018-11-03T02:51:07.090Z,1027.89
2018-11-03T02:52:07.058Z,1027.88
2018-11-03T02:53:07.024Z,1027.89
2018-11-03T02:54:06.992Z,1027.95
2018-11-03T02:55:06.959Z,1027.90
2018-11-03T02:56:06.927Z,1027.93
2018-11-03T02:57:06.893Z,1027.90
2018-11-03T02:58:06.860Z,1027.93
2018-11-03T02:59:06.827Z,1027.92
2018-11-03T03:00:06.794Z,1027.90
2018-11-03T03:01:06.766Z,1027.87
2018-11-03T03:02:06.730Z,1027.88
2018-11-03T03:03:06.696Z,1027.84
2018-11-03T03:04:06.663Z,1027.86
2018-11-03T03:05:06.630Z,1027.90
2018-11-03T03:06:06.603Z,1027.92
2018-11-03T03:07:06.566Z,1027.93
2018-11-03T03:08:06.533Z,1027.94
2018-11-03T03:09:06.499Z,1027.96
2018-11-03T03:10:06.468Z,1027.97
2018-11-03T03:11:06.436Z,1027.99
2018-11-03T03:12:06.401Z,1027.98
2018-11-03T03:13:06.369Z,1027.99
2018-11-03T03:14:06.336Z,1028.04
2018-11-03T03:15:06.305Z,1028.03
2018-11-03T03:16:06.271Z,1027.98
2018-11-03T03:17:06.243Z,1028.04
2018-11-03T03:18:06.206Z,1028.04
2018-11-03T03:19:06.173Z,1028.07
2018-11-03T03:20:06.141Z,1028.10
2018-11-03T03:21:06.106Z,1028.12
2018-11-03T03:22:06.074Z,1028.19
2018-11-03T03:23:06.040Z,1028.17
2018-11-03T03:24:06.010Z,1028.17
2018-11-03T03:25:05.979Z,1028.15
2018-11-03T03:26:05.942Z,1028.17
2018-11-03T03:27:05.912Z,1028.19
2018-11-03T03:28:05.877Z,1028.22
2018-11-03T03:29:05.880Z,1028.22
2018-11-03T03:30:05.815Z,1028.24
2018-11-03T03:31:05.779Z,1028.22
2018-11-03T03:32:05.746Z,1028.19
2018-11-03T03:33:05.715Z,1028.16
2018-11-03T03:34:05.683Z,1028.18
2018-11-03T03:35:05.651Z,1028.21
2018-11-03T03:36:05.615Z,1028.19
2018-11-03T03:37:05.581Z,1028.19
2018-11-03T03:38:05.562Z,1028.19
2018-11-03T03:39:05.516Z,1028.19
2018-11-03T03:40:05.484Z,1028.25
2018-11-03T03:41:05.452Z,1028.27
2018-11-03T03:42:05.420Z,1028.25
2018-11-03T03:43:05.388Z,1028.26
2018-11-03T03:44:05.361Z,1028.28
2018-11-03T03:45:05.331Z,1028.29
2018-11-03T03:46:05.293Z,1028.32
2018-11-03T03:47:05.255Z,1028.33
2018-11-03T03:48:05.223Z,1028.33
2018-11-03T03:49:05.199Z,1028.35
2018-11-03T03:50:05.160Z,1028.39
2018-11-03T03:51:05.125Z,1028.39
2018-11-03T03:52:05.092Z,1028.37
2018-11-03T03:53:05.061Z,1028.40
2018-11-03T03:54:05.028Z,1028.43
2018-11-03T03:55:04.995Z,1028.41
2018-11-03T03:56:04.971Z,1028.40
2018-11-03T03:57:04.932Z,1028.43
2018-11-03T03:58:04.896Z,1028.42
2018-11-03T03:59:04.866Z,1028.44
2018-11-03T04:00:04.830Z,1028.42
2018-11-03T04:01:04.798Z,1028.42
2018-11-03T04:02:04.767Z,1028.38
2018-11-03T04:03:04.733Z,1028.39
2018-11-03T04:04:04.699Z,1028.40
2018-11-03T04:05:04.667Z,1028.42
2018-11-03T04:06:04.636Z,1028.40
2018-11-03T04:07:04.602Z,1028.43
2018-11-03T04:08:04.568Z,1028.42
2018-11-03T04:09:04.537Z,1028.44
2018-11-03T04:10:04.505Z,1028.40
2018-11-03T04:11:04.469Z,1028.44
2018-11-03T04:12:04.435Z,1028.41
2018-11-03T04:13:04.402Z,1028.43
2018-11-03T04:14:04.371Z,1028.43
2018-11-03T04:15:04.371Z,1028.44
2018-11-03T04:16:04.305Z,1028.45
2018-11-03T04:17:04.275Z,1028.41
2018-11-03T04:18:04.239Z,1028.44
2018-11-03T04:19:04.211Z,1028.45
2018-11-03T04:20:04.171Z,1028.48
2018-11-03T04:21:04.139Z,1028.49
2018-11-03T04:22:04.137Z,1028.46
2018-11-03T04:23:04.074Z,1028.46
2018-11-03T04:24:04.045Z,1028.45
2018-11-03T04:25:04.008Z,1028.49
2018-11-03T04:26:03.975Z,1028.48
2018-11-03T04:27:03.939Z,1028.45
2018-11-03T04:28:03.907Z,1028.48
2018-11-03T04:29:03.874Z,1028.47
2018-11-03T04:30:03.841Z,1028.49
2018-11-03T04:31:03.807Z,1028.49
2018-11-03T04:32:03.774Z,1028.49
2018-11-03T04:33:03.741Z,1028.49
2018-11-03T04:34:03.709Z,1028.48
2018-11-03T04:35:03.676Z,1028.51
2018-11-03T04:36:03.643Z,1028.51
2018-11-03T04:37:03.609Z,1028.52
2018-11-03T04:38:03.575Z,1028.50
2018-11-03T04:39:03.542Z,1028.49
2018-11-03T04:40:03.508Z,1028.50
2018-11-03T04:41:03.475Z,1028.53
2018-11-03T04:42:03.443Z,1028.53
2018-11-03T04:43:03.408Z,1028.54
2018-11-03T04:44:03.375Z,1028.56
2018-11-03T04:45:03.345Z,1028.59
2018-11-03T04:46:03.309Z,1028.59
2018-11-03T04:47:03.276Z,1028.55
2018-11-03T04:48:03.243Z,1028.60
2018-11-03T04:49:03.210Z,1028.58
2018-11-03T04:50:03.175Z,1028.63
2018-11-03T04:51:03.142Z,1028.60
2018-11-03T04:52:03.109Z,1028.60
2018-11-03T04:53:03.128Z,1028.62
2018-11-03T04:54:03.046Z,1028.62
2018-11-03T04:55:03.094Z,1028.62
2018-11-03T04:56:02.975Z,1028.66
2018-11-03T04:57:02.942Z,1028.62
2018-11-03T04:58:02.910Z,1028.64
2018-11-03T04:59:02.894Z,1028.63
2018-11-03T05:00:02.842Z,1028.66
2018-11-03T05:01:02.816Z,1028.66
2018-11-03T05:02:02.775Z,1028.65
2018-11-03T05:03:02.741Z,1028.67
2018-11-03T05:04:02.709Z,1028.65
2018-11-03T05:05:02.678Z,1028.61
2018-11-03T05:06:02.642Z,1028.59
2018-11-03T05:07:02.608Z,1028.58
2018-11-03T05:08:02.574Z,1028.61
2018-11-03T05:09:02.541Z,1028.59
2018-11-03T05:10:02.560Z,1028.60
2018-11-03T05:11:02.475Z,1028.52
2018-11-03T05:12:02.442Z,1028.58
2018-11-03T05:13:02.408Z,1028.57
2018-11-03T05:14:02.377Z,1028.59
2018-11-03T05:15:02.343Z,1028.60
2018-11-03T05:16:02.310Z,1028.68
2018-11-03T05:17:02.276Z,1028.68
2018-11-03T05:18:02.248Z,1028.72
2018-11-03T05:19:02.209Z,1028.71
2018-11-03T05:20:02.176Z,1028.74
2018-11-03T05:21:02.247Z,1028.76
2018-11-03T05:22:02.111Z,1028.78
2018-11-03T05:23:02.078Z,1028.80
2018-11-03T05:24:02.044Z,1028.79
2018-11-03T05:25:02.012Z,1028.82
2018-11-03T05:26:01.978Z,1028.83
2018-11-03T05:27:01.946Z,1028.84
2018-11-03T05:28:01.911Z,1028.84
2018-11-03T05:29:01.892Z,1028.86
2018-11-03T05:30:01.854Z,1028.81
2018-11-03T05:31:01.870Z,1028.85
2018-11-03T05:32:01.803Z,1028.83
2018-11-03T05:33:01.748Z,1028.84
2018-11-03T05:34:01.714Z,1028.83
2018-11-03T05:35:01.682Z,1028.85
2018-11-03T05:36:01.648Z,1028.79
2018-11-03T05:37:01.616Z,1028.76
2018-11-03T05:38:01.584Z,1028.75
2018-11-03T05:39:01.596Z,1028.76
2018-11-03T05:40:01.517Z,1028.74
2018-11-03T05:41:01.487Z,1028.73
2018-11-03T05:42:01.450Z,1028.70
2018-11-03T05:43:01.416Z,1028.75
2018-11-03T05:44:01.384Z,1028.73
2018-11-03T05:45:01.355Z,1028.70
2018-11-03T05:46:01.319Z,1028.67
2018-11-03T05:47:01.284Z,1028.67
2018-11-03T05:48:01.253Z,1028.67
2018-11-03T05:49:01.219Z,1028.65
2018-11-03T05:50:01.190Z,1028.70
2018-11-03T05:51:01.152Z,1028.71
2018-11-03T05:52:01.118Z,1028.72
2018-11-03T05:53:01.091Z,1028.72
2018-11-03T05:54:01.054Z,1028.78
2018-11-03T05:55:01.018Z,1028.79
2018-11-03T05:56:00.989Z,1028.84
2018-11-03T05:57:00.953Z,1028.83
2018-11-03T05:58:00.921Z,1028.85
2018-11-03T05:59:01.011Z,1028.93
2018-11-03T06:00:00.859Z,1028.93
2018-11-03T06:01:00.820Z,1028.94
2018-11-03T06:02:00.787Z,1028.94
2018-11-03T06:03:00.752Z,1028.96
2018-11-03T06:04:00.721Z,1028.97
2018-11-03T06:05:00.686Z,1028.94
2018-11-03T06:06:00.653Z,1028.96
2018-11-03T06:07:00.620Z,1028.97
2018-11-03T06:08:00.587Z,1028.98
2018-11-03T06:09:00.661Z,1028.95
2018-11-03T06:10:00.524Z,1028.98
2018-11-03T06:11:00.488Z,1028.95
2018-11-03T06:12:00.454Z,1028.97
2018-11-03T06:13:00.421Z,1029.00
2018-11-03T06:14:00.388Z,1029.03
2018-11-03T06:15:00.353Z,1029.00
2018-11-03T06:16:00.321Z,1029.02
2018-11-03T06:17:00.288Z,1029.03
2018-11-03T06:18:00.256Z,1029.04
2018-11-03T06:19:00.222Z,1029.03
2018-11-03T06:20:00.189Z,1029.05
2018-11-03T06:21:00.155Z,1029.04
2018-11-03T06:22:00.123Z,1029.03
2018-11-03T06:23:00.151Z,1029.05
2018-11-03T06:24:00.058Z,1029.09
2018-11-03T06:25:00.025Z,1029.09
2018-11-03T06:25:59.989Z,1029.09
2018-11-03T06:26:59.954Z,1029.14
2018-11-03T06:27:59.972Z,1029.14
2018-11-03T06:28:59.890Z,1029.14
2018-11-03T06:29:59.855Z,1029.15
2018-11-03T06:30:59.822Z,1029.22
2018-11-03T06:31:59.793Z,1029.22
2018-11-03T06:32:59.755Z,1029.17
2018-11-03T06:33:59.745Z,1029.20
2018-11-03T06:34:59.706Z,1029.24
2018-11-03T06:35:59.654Z,1029.21
2018-11-03T06:36:59.624Z,1029.21
2018-11-03T06:37:59.588Z,1029.22
2018-11-03T06:38:59.607Z,1029.28
2018-11-03T06:39:59.522Z,1029.26
2018-11-03T06:40:59.489Z,1029.25
2018-11-03T06:41:59.456Z,1029.27
2018-11-03T06:42:59.422Z,1029.26
2018-11-03T06:43:59.394Z,1029.30
2018-11-03T06:44:59.354Z,1029.30
2018-11-03T06:45:59.321Z,1029.33
2018-11-03T06:46:59.287Z,1029.36
2018-11-03T06:47:59.254Z,1029.40
2018-11-03T06:48:59.222Z,1029.43
2018-11-03T06:49:59.188Z,1029.41
2018-11-03T06:50:59.154Z,1029.47
2018-11-03T06:51:59.151Z,1029.48
2018-11-03T06:52:59.122Z,1029.46
2018-11-03T06:53:59.053Z,1029.52
2018-11-03T06:54:59.020Z,1029.49
2018-11-03T06:55:58.995Z,1029.45
2018-11-03T06:56:58.952Z,1029.47
2018-11-03T06:57:58.920Z,1029.49
2018-11-03T06:58:58.885Z,1029.48
2018-11-03T06:59:58.853Z,1029.47
2018-11-03T07:00:58.825Z,1029.52
2018-11-03T07:01:58.791Z,1029.51
2018-11-03T07:02:58.753Z,1029.55
2018-11-03T07:03:58.720Z,1029.55
2018-11-03T07:04:58.705Z,1029.54
2018-11-03T07:05:58.652Z,1029.54
2018-11-03T07:06:58.621Z,1029.56
2018-11-03T07:07:58.587Z,1029.57
2018-11-03T07:08:58.553Z,1029.59
2018-11-03T07:09:58.521Z,1029.63
2018-11-03T07:10:58.486Z,1029.63
2018-11-03T07:11:58.461Z,1029.61
2018-11-03T07:12:58.526Z,1029.60
2018-11-03T07:13:58.388Z,1029.58
2018-11-03T07:14:58.353Z,1029.58
2018-11-03T07:15:58.321Z,1029.62
2018-11-03T07:16:58.287Z,1029.62
2018-11-03T07:17:58.254Z,1029.63
2018-11-03T07:18:58.219Z,1029.65
2018-11-03T07:19:58.186Z,1029.62
2018-11-03T07:20:58.154Z,1029.65
2018-11-03T07:21:58.123Z,1029.67
2018-11-03T07:22:58.088Z,1029.67
2018-11-03T07:23:58.053Z,1029.64
2018-11-03T07:24:58.021Z,1029.66
2018-11-03T07:25:57.988Z,1029.61
2018-11-03T07:26:57.955Z,1029.61
2018-11-03T07:27:57.924Z,1029.63
2018-11-03T07:28:57.890Z,1029.57
2018-11-03T07:29:57.858Z,1029.56
2018-11-03T07:30:57.823Z,1029.56
2018-11-03T07:31:57.815Z,1029.54
2018-11-03T07:32:57.757Z,1029.58
2018-11-03T07:33:57.730Z,1029.59
2018-11-03T07:34:57.692Z,1029.64
2018-11-03T07:35:57.658Z,1029.65
2018-11-03T07:36:57.627Z,1029.66
2018-11-03T07:37:57.598Z,1029.65
2018-11-03T07:38:57.560Z,1029.65
2018-11-03T07:39:57.528Z,1029.66
2018-11-03T07:40:57.578Z,1029.67
2018-11-03T07:41:57.462Z,1029.70
2018-11-03T07:42:57.431Z,1029.66
2018-11-03T07:43:57.397Z,1029.62
2018-11-03T07:44:57.371Z,1029.67
2018-11-03T07:45:57.331Z,1029.63
2018-11-03T07:46:57.299Z,1029.65
2018-11-03T07:47:57.279Z,1029.64
2018-11-03T07:48:57.364Z,1029.64
2018-11-03T07:49:57.203Z,1029.63
2018-11-03T07:50:57.169Z,1029.64
2018-11-03T07:51:57.140Z,1029.64
2018-11-03T07:52:57.107Z,1029.68
2018-11-03T07:53:57.076Z,1029.67
2018-11-03T07:54:57.182Z,1029.72
2018-11-03T07:55:57.017Z,1029.72
2018-11-03T07:56:56.981Z,1029.73
2018-11-03T07:57:56.950Z,1029.74
2018-11-03T07:58:56.919Z,1029.81
2018-11-03T07:59:56.890Z,1029.84
2018-11-03T08:00:56.904Z,1029.84
2018-11-03T08:01:56.828Z,1029.82
2018-11-03T08:02:56.797Z,1029.76
2018-11-03T08:03:56.767Z,1029.81
2018-11-03T08:04:56.737Z,1029.86
2018-11-03T08:05:56.707Z,1029.82
2018-11-03T08:06:56.677Z,1029.86
2018-11-03T08:07:56.648Z,1029.79
2018-11-03T08:08:56.634Z,1029.79
2018-11-03T08:09:56.596Z,1029.77
2018-11-03T08:10:56.565Z,1029.75
2018-11-03T08:11:56.530Z,1029.82
2018-11-03T08:12:56.502Z,1029.80
2018-11-03T08:13:56.474Z,1029.78
2018-11-03T08:14:56.478Z,1029.79
2018-11-03T08:15:56.416Z,1029.79
2018-11-03T08:16:56.388Z,1029.83
2018-11-03T08:17:56.361Z,1029.84
2018-11-03T08:18:56.356Z,1029.77
2018-11-03T08:19:56.304Z,1029.77
2018-11-03T08:20:56.275Z,1029.77
2018-11-03T08:21:56.247Z,1029.78
2018-11-03T08:22:56.219Z,1029.79
2018-11-03T08:23:56.273Z,1029.78
2018-11-03T08:24:56.167Z,1029.78
2018-11-03T08:25:56.138Z,1029.80
2018-11-03T08:26:56.144Z,1029.83
2018-11-03T08:27:56.086Z,1029.85
2018-11-03T08:28:56.056Z,1029.85
2018-11-03T08:29:56.029Z,1029.89
2018-11-03T08:30:56.002Z,1029.85
2018-11-03T08:31:55.976Z,1029.87
2018-11-03T08:32:55.949Z,1029.89
2018-11-03T08:33:55.923Z,1029.94
2018-11-03T08:34:55.896Z,1029.92
2018-11-03T08:35:55.870Z,1029.91
2018-11-03T08:36:55.844Z,1029.94
2018-11-03T08:37:55.842Z,1029.96
2018-11-03T08:38:55.791Z,1029.96
2018-11-03T08:39:55.766Z,1029.91
2018-11-03T08:40:55.741Z,1029.92
2018-11-03T08:41:55.735Z,1029.90
2018-11-03T08:42:55.687Z,1029.93
2018-11-03T08:43:55.663Z,1029.97
2018-11-03T08:44:55.638Z,1029.90
2018-11-03T08:45:55.644Z,1029.90
2018-11-03T08:46:55.586Z,1029.91
2018-11-03T08:47:55.562Z,1029.87
2018-11-03T08:48:55.702Z,1029.92
2018-11-03T08:49:55.510Z,1029.90
2018-11-03T08:50:55.485Z,1029.87
2018-11-03T08:51:55.459Z,1029.85
2018-11-03T08:52:55.436Z,1029.87
2018-11-03T08:53:55.410Z,1029.89
2018-11-03T08:54:55.384Z,1029.88
2018-11-03T08:55:55.360Z,1029.92
2018-11-03T08:56:55.341Z,1029.93
2018-11-03T08:57:55.312Z,1029.95
2018-11-03T08:58:55.288Z,1029.97
2018-11-03T08:59:55.410Z,1029.95
2018-11-03T09:00:55.239Z,1029.95
2018-11-03T09:01:55.214Z,1029.95
2018-11-03T09:02:55.189Z,1029.92
2018-11-03T09:03:55.163Z,1029.89
2018-11-03T09:04:55.142Z,1029.90
2018-11-03T09:05:55.116Z,1029.86
2018-11-03T09:06:55.108Z,1029.87
2018-11-03T09:07:55.072Z,1029.87
2018-11-03T09:08:55.042Z,1029.87
2018-11-03T09:09:55.066Z,1029.84
2018-11-03T09:10:54.995Z,1029.84
2018-11-03T09:11:54.993Z,1029.87
2018-11-03T09:12:54.946Z,1029.89
2018-11-03T09:13:54.922Z,1029.88
2018-11-03T09:14:54.951Z,1029.90
2018-11-03T09:15:54.876Z,1029.95
2018-11-03T09:16:54.850Z,1029.97
2018-11-03T09:17:54.830Z,1029.97
2018-11-03T09:18:54.802Z,1029.99
2018-11-03T09:19:54.779Z,1029.97
2018-11-03T09:20:54.756Z,1030.01
2018-11-03T09:21:54.766Z,1030.02
2018-11-03T09:22:54.708Z,1030.00
2018-11-03T09:23:54.685Z,1030.00
2018-11-03T09:24:54.662Z,1030.01
2018-11-03T09:25:54.657Z,1030.03
2018-11-03T09:26:54.613Z,1030.03
2018-11-03T09:27:54.591Z,1029.97
2018-11-03T09:28:54.567Z,1030.01
2018-11-03T09:29:54.543Z,1030.01
2018-11-03T09:30:54.520Z,1030.01
2018-11-03T09:31:54.521Z,1030.03
2018-11-03T09:32:54.473Z,1030.04
2018-11-03T09:33:54.452Z,1030.04
2018-11-03T09:34:54.427Z,1030.04
2018-11-03T09:35:54.401Z,1030.04
2018-11-03T09:36:54.381Z,1030.05
2018-11-03T09:37:54.357Z,1030.03
2018-11-03T09:38:54.376Z,1030.01
2018-11-03T09:39:54.311Z,1030.07
2018-11-03T09:40:54.290Z,1030.06
2018-11-03T09:41:54.263Z,1030.06
2018-11-03T09:42:54.302Z,1030.03
2018-11-03T09:43:54.217Z,1030.03
2018-11-03T09:44:54.236Z,1030.03
2018-11-03T09:45:54.170Z,1030.01
2018-11-03T09:46:54.146Z,1030.06
2018-11-03T09:47:54.124Z,1030.04
2018-11-03T09:48:54.104Z,1030.06
2018-11-03T09:49:54.079Z,1030.05
2018-11-03T09:50:54.092Z,1030.00
2018-11-03T09:51:54.031Z,1030.03
2018-11-03T09:52:54.022Z,1030.03
2018-11-03T09:53:53.989Z,1030.03
2018-11-03T09:54:53.962Z,1030.01
2018-11-03T09:55:53.937Z,1029.97
2018-11-03T09:56:53.920Z,1029.97
2018-11-03T09:57:53.892Z,1029.95
2018-11-03T09:58:53.869Z,1029.96
2018-11-03T09:59:53.847Z,1029.93
2018-11-03T10:00:53.823Z,1029.93
2018-11-03T10:01:53.806Z,1029.91
2018-11-03T10:02:53.777Z,1029.91
2018-11-03T10:03:53.753Z,1029.90
2018-11-03T10:04:53.731Z,1029.89
2018-11-03T10:05:53.724Z,1029.87
2018-11-03T10:06:53.685Z,1029.92
2018-11-03T10:07:53.663Z,1029.88
2018-11-03T10:08:53.640Z,1029.89
2018-11-03T10:09:53.617Z,1029.90
2018-11-03T10:10:53.593Z,1029.93
2018-11-03T10:11:53.570Z,1029.91
2018-11-03T10:12:53.547Z,1029.85
2018-11-03T10:13:53.525Z,1029.88
2018-11-03T10:14:53.500Z,1029.88
2018-11-03T10:15:53.509Z,1029.85
2018-11-03T10:16:53.455Z,1029.89
2018-11-03T10:17:53.432Z,1029.87
2018-11-03T10:18:53.410Z,1029.85
2018-11-03T10:19:53.386Z,1029.87
2018-11-03T10:20:53.363Z,1029.83
2018-11-03T10:21:53.346Z,1029.80
2018-11-03T10:22:53.391Z,1029.83
2018-11-03T10:23:53.297Z,1029.83
2018-11-03T10:24:53.273Z,1029.86
2018-11-03T10:25:53.252Z,1029.86
2018-11-03T10:26:53.228Z,1029.86
2018-11-03T10:27:53.206Z,1029.82
2018-11-03T10:28:53.182Z,1029.75
2018-11-03T10:29:53.161Z,1029.77
2018-11-03T10:30:53.136Z,1029.73
2018-11-03T10:31:53.114Z,1029.71
2018-11-03T10:32:53.093Z,1029.73
2018-11-03T10:33:53.241Z,1029.72
2018-11-03T10:34:53.046Z,1029.70
2018-11-03T10:35:53.022Z,1029.71
2018-11-03T10:36:53.001Z,1029.68
2018-11-03T10:37:52.979Z,1029.69
2018-11-03T10:38:52.969Z,1029.67
2018-11-03T10:39:52.932Z,1029.67
2018-11-03T10:40:52.915Z,1029.67
2018-11-03T10:41:52.887Z,1029.62
2018-11-03T10:42:52.900Z,1029.63
2018-11-03T10:43:52.851Z,1029.57
2018-11-03T10:44:52.820Z,1029.57
2018-11-03T10:45:52.796Z,1029.57
2018-11-03T10:46:52.776Z,1029.50
2018-11-03T10:47:52.751Z,1029.49
2018-11-03T10:48:52.728Z,1029.47
2018-11-03T10:49:52.707Z,1029.43
2018-11-03T10:50:52.682Z,1029.39
2018-11-03T10:51:52.663Z,1029.42
2018-11-03T10:52:52.637Z,1029.37
2018-11-03T10:53:52.615Z,1029.40
2018-11-03T10:54:52.591Z,1029.43
2018-11-03T10:55:52.569Z,1029.41
2018-11-03T10:56:52.546Z,1029.39
2018-11-03T10:57:52.525Z,1029.34
2018-11-03T10:58:52.499Z,1029.32
2018-11-03T10:59:52.476Z,1029.31
2018-11-03T11:00:52.452Z,1029.26
2018-11-03T11:01:52.429Z,1029.27
2018-11-03T11:02:52.407Z,1029.28
2018-11-03T11:03:52.385Z,1029.30
2018-11-03T11:04:52.359Z,1029.30
2018-11-03T11:05:52.369Z,1029.29
2018-11-03T11:06:52.312Z,1029.28
2018-11-03T11:07:52.290Z,1029.27
2018-11-03T11:08:52.268Z,1029.25
2018-11-03T11:09:52.244Z,1029.24
2018-11-03T11:10:52.218Z,1029.24
2018-11-03T11:11:52.196Z,1029.17
2018-11-03T11:12:52.173Z,1029.18
2018-11-03T11:13:52.169Z,1029.19
2018-11-03T11:14:52.125Z,1029.19
2018-11-03T11:15:52.194Z,1029.16
2018-11-03T11:16:52.122Z,1029.15
2018-11-03T11:17:52.056Z,1029.16
2018-11-03T11:18:52.032Z,1029.13
2018-11-03T11:19:52.010Z,1029.15
2018-11-03T11:20:51.986Z,1029.13
2018-11-03T11:21:51.971Z,1029.10
2018-11-03T11:22:51.938Z,1029.10
2018-11-03T11:23:51.938Z,1029.11
2018-11-03T11:24:51.993Z,1029.11
2018-11-03T11:25:51.885Z,1029.07
2018-11-03T11:26:51.848Z,1029.12
2018-11-03T11:27:51.822Z,1029.09
2018-11-03T11:28:51.799Z,1029.12
2018-11-03T11:29:51.781Z,1029.06
2018-11-03T11:30:51.754Z,1029.07
2018-11-03T11:31:51.755Z,1029.07
2018-11-03T11:32:51.764Z,1029.08
2018-11-03T11:33:51.683Z,1029.10
2018-11-03T11:34:51.660Z,1029.09
2018-11-03T11:35:51.638Z,1029.08
2018-11-03T11:36:51.614Z,1029.08
2018-11-03T11:37:51.591Z,1029.05
2018-11-03T11:38:51.568Z,1029.05
2018-11-03T11:39:51.544Z,1029.06
2018-11-03T11:40:51.520Z,1029.07
2018-11-03T11:41:51.498Z,1029.09
2018-11-03T11:42:51.487Z,1029.05
2018-11-03T11:43:51.449Z,1029.00
2018-11-03T11:44:51.428Z,1029.03
2018-11-03T11:45:51.402Z,1029.04
2018-11-03T11:46:51.381Z,1029.03
2018-11-03T11:47:51.357Z,1029.02
2018-11-03T11:48:51.336Z,1029.06
2018-11-03T11:49:51.309Z,1029.00
2018-11-03T11:50:51.287Z,1029.02
2018-11-03T11:51:51.262Z,1029.01
2018-11-03T11:52:51.238Z,1028.99
2018-11-03T11:53:51.220Z,1028.97
2018-11-03T11:54:51.276Z,1028.96
2018-11-03T11:55:51.168Z,1028.94
2018-11-03T11:56:51.144Z,1028.93
2018-11-03T11:57:51.122Z,1028.97
2018-11-03T11:58:51.097Z,1028.94
2018-11-03T11:59:51.074Z,1028.91
2018-11-03T12:00:51.202Z,1028.87
2018-11-03T12:01:51.025Z,1028.86
2018-11-03T12:02:51.003Z,1028.88
2018-11-03T12:03:50.977Z,1028.90
2018-11-03T12:04:50.955Z,1028.91